createdAt,value
2023-04-15T00:00:03.039Z,93010.20
2023-04-15T00:02:29.634Z,93009.20
2023-04-15T00:04:55.870Z,93002.80
2023-04-15T00:07:22.225Z,93002.20
2023-04-15T00:09:48.714Z,93008.40
2023-04-15T00:12:14.790Z,93012.60
2023-04-15T00:14:41.128Z,93007.00
2023-04-15T00:17:07.525Z,93010.20
2023-04-15T00:19:33.957Z,93012.20
2023-04-15T00:22:00.793Z,93010.20
2023-04-15T00:24:27.270Z,93006.20
2023-04-15T00:26:53.384Z,93002.60
2023-04-15T00:29:19.727Z,93004.80
2023-04-15T00:31:45.824Z,93004.40
2023-04-15T00:34:12.194Z,93002.00
2023-04-15T00:36:38.351Z,92989.80
2023-04-15T00:39:04.743Z,92988.20
2023-04-15T00:41:31.148Z,92991.40
2023-04-15T00:43:57.232Z,92989.80
2023-04-15T00:46:23.506Z,92991.20
2023-04-15T00:48:49.858Z,92996.40
2023-04-15T00:51:16.065Z,92999.80
2023-04-15T00:53:43.072Z,92999.80
2023-04-15T00:56:09.176Z,92999.20
2023-04-15T00:58:36.415Z,93004.60
2023-04-15T01:01:02.528Z,93009.60
2023-04-15T01:03:28.763Z,93005.80
2023-04-15T01:05:57.633Z,93008.00
2023-04-15T01:08:23.734Z,93005.80
2023-04-15T01:10:50.054Z,93002.00
2023-04-15T01:13:16.242Z,93010.60
2023-04-15T01:15:43.006Z,93015.00
2023-04-15T01:18:09.153Z,93009.80
2023-04-15T01:20:35.696Z,93007.60
2023-04-15T01:23:01.870Z,93016.20
2023-04-15T01:25:28.056Z,93019.20
2023-04-15T01:27:54.171Z,93017.60
2023-04-15T01:30:20.277Z,93015.60
2023-04-15T01:32:46.874Z,93010.60
2023-04-15T01:35:13.517Z,93013.60
2023-04-15T01:37:39.817Z,93012.20
2023-04-15T01:40:05.908Z,93014.00
2023-04-15T01:42:32.090Z,93019.80
2023-04-15T01:44:58.193Z,93020.80
2023-04-15T01:47:24.371Z,93023.80
2023-04-15T01:49:50.924Z,93029.20
2023-04-15T01:52:17.791Z,93028.40
2023-04-15T01:54:43.872Z,93038.40
2023-04-15T01:57:09.991Z,93044.40
2023-04-15T01:59:36.635Z,93047.00
2023-04-15T02:02:02.906Z,93050.20
2023-04-15T02:04:29.073Z,93057.20
2023-04-15T02:06:55.208Z,93058.20
2023-04-15T02:09:21.305Z,93054.60
2023-04-15T02:11:47.365Z,93055.00
2023-04-15T02:14:13.832Z,93051.20
2023-04-15T02:16:39.952Z,93056.20
2023-04-15T02:19:07.062Z,93059.40
2023-04-15T02:21:34.712Z,93062.80
2023-04-15T02:24:01.798Z,93057.40
2023-04-15T02:26:31.404Z,93057.20
2023-04-15T02:28:57.515Z,93060.80
2023-04-15T02:31:23.602Z,93054.40
2023-04-15T02:33:49.782Z,93057.80
2023-04-15T02:36:15.967Z,93051.80
2023-04-15T02:38:42.604Z,93048.00
2023-04-15T02:41:08.796Z,93048.60
2023-04-15T02:43:34.882Z,93049.60
2023-04-15T02:46:00.985Z,93053.20
2023-04-15T02:48:27.283Z,93050.80
2023-04-15T02:50:53.437Z,93050.00
2023-04-15T02:53:20.181Z,93056.00
2023-04-15T02:55:46.335Z,93053.00
2023-04-15T02:58:12.479Z,93050.40
2023-04-15T03:00:38.582Z,93050.00
2023-04-15T03:03:05.172Z,93049.60
2023-04-15T03:05:31.691Z,93056.00
2023-04-15T03:07:57.773Z,93060.60
2023-04-15T03:10:24.045Z,93062.80
2023-04-15T03:12:50.279Z,93069.60
2023-04-15T03:15:16.528Z,93067.60
2023-04-15T03:17:42.751Z,93070.60
2023-04-15T03:20:09.742Z,93067.20
2023-04-15T03:22:35.917Z,93062.20
2023-04-15T03:25:02.077Z,93060.80
2023-04-15T03:27:28.314Z,93071.40
2023-04-15T03:29:56.070Z,93067.00
2023-04-15T03:32:22.231Z,93075.00
2023-04-15T03:34:48.386Z,93075.40
2023-04-15T03:37:14.470Z,93070.80
2023-04-15T03:39:41.103Z,93071.20
2023-04-15T03:42:07.217Z,93070.80
2023-04-15T03:44:33.285Z,93074.40
2023-04-15T03:46:59.423Z,93080.60
2023-04-15T03:49:25.545Z,93087.80
2023-04-15T03:51:51.639Z,93090.20
2023-04-15T03:54:17.966Z,93086.20
2023-04-15T03:56:44.069Z,93093.20
2023-04-15T03:59:10.749Z,93091.20
2023-04-15T04:01:36.931Z,93098.00
2023-04-15T04:04:03.328Z,93104.40
2023-04-15T04:06:30.469Z,93104.20
2023-04-15T04:08:56.858Z,93104.60
2023-04-15T04:11:23.161Z,93097.40
2023-04-15T04:13:49.232Z,93104.00
2023-04-15T04:16:15.951Z,93107.60
2023-04-15T04:18:42.380Z,93109.60
2023-04-15T04:21:08.753Z,93119.60
2023-04-15T04:23:34.936Z,93120.60
2023-04-15T04:26:01.266Z,93114.80
2023-04-15T04:28:27.472Z,93117.40
2023-04-15T04:30:53.559Z,93117.00
2023-04-15T04:33:19.669Z,93111.00
2023-04-15T04:35:46.171Z,93119.20
2023-04-15T04:38:12.313Z,93120.20
2023-04-15T04:40:38.614Z,93120.20
2023-04-15T04:43:04.767Z,93119.40
2023-04-15T04:45:31.248Z,93125.00
2023-04-15T04:47:57.438Z,93124.40
2023-04-15T04:50:23.635Z,93126.60
2023-04-15T04:52:49.910Z,93121.80
2023-04-15T04:55:16.171Z,93120.20
2023-04-15T04:57:42.282Z,93125.00
2023-04-15T05:00:08.528Z,93127.60
2023-04-15T05:02:35.459Z,93128.80
2023-04-15T05:05:01.727Z,93124.80
2023-04-15T05:07:27.867Z,93126.20
2023-04-15T05:09:54.039Z,93128.40
2023-04-15T05:12:20.140Z,93127.00
2023-04-15T05:14:46.383Z,93129.60
2023-04-15T05:17:13.483Z,93130.40
2023-04-15T05:19:39.757Z,93130.80
2023-04-15T05:22:06.339Z,93133.40
2023-04-15T05:24:32.446Z,93133.40
2023-04-15T05:26:58.525Z,93132.60
2023-04-15T05:29:24.744Z,93135.60
2023-04-15T05:31:51.332Z,93135.20
2023-04-15T05:34:17.515Z,93138.00
2023-04-15T05:36:43.719Z,93138.00
2023-04-15T05:39:09.828Z,93138.80
2023-04-15T05:41:35.981Z,93136.40
2023-04-15T05:44:02.212Z,93144.00
2023-04-15T05:46:28.451Z,93145.20
2023-04-15T05:48:56.412Z,93147.20
2023-04-15T05:51:22.824Z,93148.20
2023-04-15T05:53:52.067Z,93155.80
2023-04-15T05:56:19.661Z,93147.60
2023-04-15T05:58:45.815Z,93149.00
2023-04-15T06:01:11.898Z,93154.40
2023-04-15T06:03:38.361Z,93156.60
2023-04-15T06:06:04.608Z,93160.20
2023-04-15T06:08:30.801Z,93156.40
2023-04-15T06:10:56.980Z,93158.20
2023-04-15T06:13:23.069Z,93153.60
2023-04-15T06:15:49.405Z,93157.00
2023-04-15T06:18:15.520Z,93161.20
2023-04-15T06:20:41.598Z,93167.00
2023-04-15T06:23:07.723Z,93166.20
2023-04-15T06:25:33.864Z,93160.00
2023-04-15T06:28:00.183Z,93160.40
2023-04-15T06:30:26.481Z,93159.00
2023-04-15T06:32:52.753Z,93159.60
2023-04-15T06:35:18.933Z,93162.60
2023-04-15T06:37:45.110Z,93165.20
2023-04-15T06:40:11.243Z,93162.80
2023-04-15T06:42:37.634Z,93164.00
2023-04-15T06:45:03.735Z,93165.00
2023-04-15T06:47:29.852Z,93165.80
2023-04-15T06:49:55.966Z,93173.00
2023-04-15T06:52:22.272Z,93169.60
2023-04-15T06:54:48.414Z,93175.40
2023-04-15T06:57:14.716Z,93172.40
2023-04-15T06:59:42.387Z,93173.60
2023-04-15T07:02:08.519Z,93180.00
2023-04-15T07:04:34.828Z,93189.40
2023-04-15T07:07:01.940Z,93187.40
2023-04-15T07:09:28.163Z,93189.40
2023-04-15T07:11:54.215Z,93190.80
2023-04-15T07:14:20.347Z,93194.40
2023-04-15T07:16:46.619Z,93193.40
2023-04-15T07:19:12.935Z,93198.20
2023-04-15T07:21:41.214Z,93197.00
2023-04-15T07:24:09.732Z,93192.80
2023-04-15T07:26:35.910Z,93201.00
2023-04-15T07:29:02.370Z,93203.00
2023-04-15T07:31:29.289Z,93199.60
2023-04-15T07:33:55.452Z,93194.60
2023-04-15T07:36:21.577Z,93196.20
2023-04-15T07:38:48.343Z,93196.80
2023-04-15T07:41:15.115Z,93197.80
2023-04-15T07:43:41.246Z,93197.60
2023-04-15T07:46:07.740Z,93200.20
2023-04-15T07:48:35.512Z,93201.00
2023-04-15T07:51:02.834Z,93198.80
2023-04-15T07:53:29.720Z,93197.80
2023-04-15T07:55:55.787Z,93201.60
2023-04-15T07:58:22.421Z,93203.20
2023-04-15T08:00:49.752Z,93205.00
2023-04-15T08:03:16.080Z,93200.00
2023-04-15T08:05:42.389Z,93206.00
2023-04-15T08:08:08.531Z,93201.60
2023-04-15T08:10:34.949Z,93202.20
2023-04-15T08:13:01.152Z,93204.20
2023-04-15T08:15:27.810Z,93206.80
2023-04-15T08:17:54.037Z,93205.40
2023-04-15T08:20:20.635Z,93205.60
2023-04-15T08:22:51.117Z,93208.40
2023-04-15T08:25:17.382Z,93210.60
2023-04-15T08:27:43.541Z,93210.80
2023-04-15T08:30:09.949Z,93211.20
2023-04-15T08:32:36.748Z,93209.20
2023-04-15T08:35:03.092Z,93212.60
2023-04-15T08:37:29.273Z,93213.40
2023-04-15T08:39:55.675Z,93218.40
2023-04-15T08:42:21.798Z,93216.60
2023-04-15T08:44:48.204Z,93218.40
2023-04-15T08:47:14.475Z,93216.40
2023-04-15T08:49:41.325Z,93212.80
2023-04-15T08:52:07.618Z,93213.20
2023-04-15T08:54:33.709Z,93214.40
2023-04-15T08:56:59.842Z,93218.80
2023-04-15T08:59:25.982Z,93218.60
2023-04-15T09:01:52.398Z,93216.40
2023-04-15T09:04:18.809Z,93221.00
2023-04-15T09:06:45.009Z,93226.80
2023-04-15T09:09:11.523Z,93225.20
2023-04-15T09:11:37.682Z,93223.60
2023-04-15T09:14:03.814Z,93223.20
2023-04-15T09:16:30.110Z,93221.80
2023-04-15T09:18:56.499Z,93220.60
2023-04-15T09:21:22.940Z,93217.60
2023-04-15T09:23:49.040Z,93218.80
2023-04-15T09:26:15.200Z,93213.00
2023-04-15T09:28:41.589Z,93213.20
2023-04-15T09:31:07.875Z,93213.80
2023-04-15T09:33:34.308Z,93209.40
2023-04-15T09:36:00.440Z,93209.20
2023-04-15T09:38:26.532Z,93202.60
2023-04-15T09:40:52.769Z,93202.60
2023-04-15T09:43:18.885Z,93203.00
2023-04-15T09:45:45.615Z,93204.60
2023-04-15T09:48:11.725Z,93205.00
2023-04-15T09:50:37.840Z,93204.20
2023-04-15T09:53:03.990Z,93201.20
2023-04-15T09:55:30.139Z,93207.20
2023-04-15T09:57:56.269Z,93205.40
2023-04-15T10:00:22.359Z,93203.80
2023-04-15T10:02:49.165Z,93201.80
2023-04-15T10:05:17.242Z,93200.00
2023-04-15T10:07:43.352Z,93196.60
2023-04-15T10:10:09.532Z,93203.40
2023-04-15T10:12:36.380Z,93206.80
2023-04-15T10:15:02.538Z,93202.80
2023-04-15T10:17:34.616Z,93200.20
2023-04-15T10:20:01.281Z,93200.40
2023-04-15T10:22:27.598Z,93200.00
2023-04-15T10:24:54.010Z,93197.20
2023-04-15T10:27:20.166Z,93193.60
2023-04-15T10:29:46.419Z,93196.00
2023-04-15T10:32:12.625Z,93201.40
2023-04-15T10:34:38.875Z,93205.20
2023-04-15T10:37:05.162Z,93204.40
2023-04-15T10:39:31.419Z,93197.40
2023-04-15T10:41:57.664Z,93201.40
2023-04-15T10:44:23.741Z,93205.60
2023-04-15T10:46:50.269Z,93199.80
2023-04-15T10:49:16.415Z,93196.00
2023-04-15T10:51:42.525Z,93198.60
2023-04-15T10:54:08.658Z,93201.80
2023-04-15T10:56:34.734Z,93208.40
2023-04-15T10:59:01.439Z,93207.80
2023-04-15T11:01:27.704Z,93210.40
2023-04-15T11:03:54.038Z,93209.40
2023-04-15T11:06:20.280Z,93211.40
2023-04-15T11:08:46.460Z,93210.40
2023-04-15T11:11:12.786Z,93213.20
2023-04-15T11:13:38.857Z,93217.80
2023-04-15T11:16:05.661Z,93218.40
2023-04-15T11:18:32.122Z,93215.00
2023-04-15T11:20:58.779Z,93218.00
2023-04-15T11:23:24.893Z,93221.60
2023-04-15T11:25:51.288Z,93225.00
2023-04-15T11:28:17.680Z,93224.40
2023-04-15T11:30:44.034Z,93224.40
2023-04-15T11:33:11.394Z,93228.60
2023-04-15T11:35:37.737Z,93225.20
2023-04-15T11:38:03.899Z,93220.80
2023-04-15T11:40:30.549Z,93221.20
2023-04-15T11:42:56.875Z,93222.80
2023-04-15T11:45:23.033Z,93216.40
2023-04-15T11:47:49.120Z,93218.80
2023-04-15T11:50:15.935Z,93222.80
2023-04-15T11:52:42.114Z,93223.80
2023-04-15T11:55:08.386Z,93223.60
2023-04-15T11:57:34.607Z,93217.20
2023-04-15T12:00:00.749Z,93217.60
2023-04-15T12:02:26.943Z,93219.40
2023-04-15T12:04:53.297Z,93213.80
2023-04-15T12:07:19.568Z,93216.40
2023-04-15T12:09:45.885Z,93218.00
2023-04-15T12:12:12.040Z,93223.20
2023-04-15T12:14:38.544Z,93220.80
2023-04-15T12:17:04.613Z,93220.20
2023-04-15T12:19:32.011Z,93217.20
2023-04-15T12:22:00.368Z,93216.20
2023-04-15T12:24:27.127Z,93225.80
2023-04-15T12:26:53.377Z,93227.00
2023-04-15T12:29:20.427Z,93222.20
2023-04-15T12:31:46.951Z,93225.00
2023-04-15T12:34:13.428Z,93218.20
2023-04-15T12:36:39.660Z,93220.00
2023-04-15T12:39:06.127Z,93219.40
2023-04-15T12:41:32.440Z,93217.80
2023-04-15T12:43:58.546Z,93215.40
2023-04-15T12:46:25.097Z,93209.60
2023-04-15T12:48:54.418Z,93217.20
2023-04-15T12:51:23.352Z,93225.40
2023-04-15T12:53:49.422Z,93229.40
2023-04-15T12:56:16.217Z,93231.80
2023-04-15T12:58:42.752Z,93234.80
2023-04-15T13:01:09.660Z,93241.80
2023-04-15T13:03:36.059Z,93241.60
2023-04-15T13:06:04.138Z,93253.20
2023-04-15T13:08:30.538Z,93260.80
2023-04-15T13:10:56.625Z,93259.60
2023-04-15T13:13:22.729Z,93263.60
2023-04-15T13:15:49.066Z,93263.00
2023-04-15T13:18:15.410Z,93264.20
2023-04-15T13:20:41.690Z,93259.20
2023-04-15T13:23:07.783Z,93261.00
2023-04-15T13:25:34.021Z,93264.80
2023-04-15T13:28:00.729Z,93268.00
2023-04-15T13:30:27.156Z,93268.00
2023-04-15T13:32:53.757Z,93271.60
2023-04-15T13:35:20.541Z,93282.20
2023-04-15T13:37:46.931Z,93295.00
2023-04-15T13:40:13.019Z,93300.80
2023-04-15T13:42:39.219Z,93299.20
2023-04-15T13:45:05.557Z,93299.60
2023-04-15T13:47:31.654Z,93300.80
2023-04-15T13:49:57.823Z,93299.40
2023-04-15T13:52:24.031Z,93298.00
2023-04-15T13:55:17.799Z,93295.00
2023-04-15T13:57:36.307Z,93294.60
2023-04-15T14:00:03.801Z,93291.80
2023-04-15T14:02:30.197Z,93304.40
2023-04-15T14:04:56.542Z,93307.00
2023-04-15T14:07:22.623Z,93312.00
2023-04-15T14:09:51.551Z,93315.00
2023-04-15T14:12:17.655Z,93316.20
2023-04-15T14:14:43.756Z,93325.80
2023-04-15T14:17:10.118Z,93327.60
2023-04-15T14:19:36.213Z,93329.20
2023-04-15T14:22:02.973Z,93339.20
2023-04-15T14:24:29.100Z,93340.20
2023-04-15T14:26:56.815Z,93347.40
2023-04-15T14:29:23.126Z,93348.00
2023-04-15T14:32:11.071Z,93345.60
2023-04-15T14:34:35.622Z,93349.00
2023-04-15T14:37:01.699Z,93353.80
2023-04-15T14:39:27.953Z,93346.40
2023-04-15T14:41:55.023Z,93347.80
2023-04-15T14:44:21.156Z,93356.80
2023-04-15T14:46:47.279Z,93354.60
2023-04-15T14:49:13.427Z,93352.20
2023-04-15T14:51:41.643Z,93354.60
2023-04-15T14:54:07.925Z,93359.40
2023-04-15T14:56:34.062Z,93360.20
2023-04-15T14:59:00.304Z,93363.40
2023-04-15T15:01:26.459Z,93366.40
2023-04-15T15:03:52.646Z,93375.20
2023-04-15T15:06:18.900Z,93374.80
2023-04-15T15:08:45.001Z,93375.20
2023-04-15T15:11:11.125Z,93374.60
2023-04-15T15:13:37.283Z,93375.40
2023-04-15T15:16:03.434Z,93373.60
2023-04-15T15:18:29.625Z,93372.20
2023-04-15T15:20:55.698Z,93371.40
2023-04-15T15:23:22.030Z,93365.80
2023-04-15T15:25:48.438Z,93377.80
2023-04-15T15:28:14.602Z,93375.40
2023-04-15T15:30:40.751Z,93376.80
2023-04-15T15:33:06.945Z,93370.00
2023-04-15T15:35:33.035Z,93371.00
2023-04-15T15:37:59.990Z,93374.20
2023-04-15T15:40:26.654Z,93376.20
2023-04-15T15:42:52.728Z,93372.00
2023-04-15T15:45:18.830Z,93377.00
2023-04-15T15:47:45.262Z,93376.60
2023-04-15T15:50:11.477Z,93376.80
2023-04-15T15:52:37.564Z,93384.00
2023-04-15T15:55:03.715Z,93382.60
2023-04-15T15:57:29.833Z,93387.60
2023-04-15T16:00:10.310Z,93391.60
2023-04-15T16:03:02.408Z,93393.40
2023-04-15T16:05:23.202Z,93396.20
2023-04-15T16:07:49.344Z,93393.00
2023-04-15T16:10:15.673Z,93395.20
2023-04-15T16:12:41.956Z,93397.20
2023-04-15T16:15:08.032Z,93397.20
2023-04-15T16:17:34.300Z,93397.60
2023-04-15T16:20:04.646Z,93397.40
2023-04-15T16:22:30.760Z,93402.20
2023-04-15T16:24:56.851Z,93406.40
2023-04-15T16:27:23.013Z,93409.60
2023-04-15T16:29:51.864Z,93409.00
2023-04-15T16:32:18.047Z,93424.20
2023-04-15T16:34:44.319Z,93425.40
2023-04-15T16:37:10.630Z,93436.80
2023-04-15T16:39:37.068Z,93431.60
2023-04-15T16:42:03.308Z,93437.40
2023-04-15T16:44:29.736Z,93444.40
2023-04-15T16:46:56.104Z,93448.20
2023-04-15T16:49:22.276Z,93450.80
2023-04-15T16:51:48.579Z,93453.20
2023-04-15T16:54:14.675Z,93460.20
2023-04-15T16:56:40.751Z,93464.00
2023-04-15T16:59:06.880Z,93468.60
2023-04-15T17:01:33.174Z,93475.00
2023-04-15T17:03:59.859Z,93477.80
2023-04-15T17:06:26.068Z,93485.80
2023-04-15T17:08:52.321Z,93489.40
2023-04-15T17:11:18.421Z,93494.00
2023-04-15T17:13:44.746Z,93495.00
2023-04-15T17:16:11.038Z,93499.60
2023-04-15T17:18:37.271Z,93505.80
2023-04-15T17:21:03.392Z,93511.60
2023-04-15T17:23:30.366Z,93514.40
2023-04-15T17:25:56.659Z,93517.80
2023-04-15T17:28:22.756Z,93517.80
2023-04-15T17:30:48.939Z,93518.60
2023-04-15T17:33:55.983Z,93523.80
2023-04-15T17:36:01.651Z,93518.40
2023-04-15T17:38:27.957Z,93520.60
2023-04-15T17:40:54.500Z,93527.80
2023-04-15T17:43:21.158Z,93529.20
2023-04-15T17:45:47.430Z,93536.80
2023-04-15T17:48:13.747Z,93540.20
2023-04-15T17:50:40.112Z,93538.80
2023-04-15T17:53:06.390Z,93545.60
2023-04-15T17:55:32.553Z,93548.20
2023-04-15T17:57:58.642Z,93555.60
2023-04-15T18:00:25.291Z,93559.20
2023-04-15T18:02:52.092Z,93561.40
2023-04-15T18:05:19.192Z,93562.60
2023-04-15T18:07:45.671Z,93562.20
2023-04-15T18:10:12.240Z,93565.60
2023-04-15T18:12:38.862Z,93574.20
2023-04-15T18:15:05.581Z,93578.60
2023-04-15T18:17:31.692Z,93581.20
2023-04-15T18:19:57.870Z,93582.40
2023-04-15T18:22:24.084Z,93584.20
2023-04-15T18:24:50.418Z,93583.00
2023-04-15T18:27:17.021Z,93587.40
2023-04-15T18:29:43.792Z,93588.80
2023-04-15T18:32:10.044Z,93589.00
2023-04-15T18:34:36.365Z,93590.20
2023-04-15T18:37:03.127Z,93592.20
2023-04-15T18:39:30.115Z,93592.20
2023-04-15T18:41:56.924Z,93591.20
2023-04-15T18:44:23.963Z,93594.20
2023-04-15T18:46:50.489Z,93597.60
2023-04-15T18:49:17.152Z,93602.00
2023-04-15T18:51:43.747Z,93601.80
2023-04-15T18:54:10.280Z,93603.60
2023-04-15T18:56:36.969Z,93606.60
2023-04-15T18:59:09.412Z,93612.40
2023-04-15T19:01:50.139Z,93610.60
2023-04-15T19:04:16.359Z,93615.20
2023-04-15T19:06:42.884Z,93620.20
2023-04-15T19:09:09.000Z,93630.60
2023-04-15T19:11:35.379Z,93630.20
2023-04-15T19:14:01.793Z,93630.00
2023-04-15T19:16:27.976Z,93631.80
2023-04-15T19:18:54.123Z,93632.00
2023-04-15T19:21:20.637Z,93636.40
2023-04-15T19:23:47.624Z,93641.40
2023-04-15T19:26:14.069Z,93646.80
2023-04-15T19:28:40.457Z,93646.60
2023-04-15T19:31:06.812Z,93647.00
2023-04-15T19:33:33.056Z,93649.80
2023-04-15T19:35:59.143Z,93648.40
2023-04-15T19:38:25.729Z,93649.20
2023-04-15T19:40:52.096Z,93650.60
2023-04-15T19:43:18.679Z,93657.40
2023-04-15T19:45:48.568Z,93653.80
2023-04-15T19:48:15.488Z,93656.40
2023-04-15T19:50:41.790Z,93660.00
2023-04-15T19:53:08.121Z,93667.80
2023-04-15T19:55:34.377Z,93670.60
2023-04-15T19:58:01.028Z,93670.60
2023-04-15T20:00:27.265Z,93671.40
2023-04-15T20:02:53.560Z,93680.20
2023-04-15T20:05:19.784Z,93679.80
2023-04-15T20:07:48.079Z,93682.80
2023-04-15T20:10:14.192Z,93686.00
2023-04-15T20:12:50.465Z,93690.40
2023-04-15T20:15:18.937Z,93690.40
2023-04-15T20:17:45.100Z,93690.00
2023-04-15T20:20:11.262Z,93690.00
2023-04-15T20:22:37.433Z,93688.40
2023-04-15T20:25:06.312Z,93685.60
2023-04-15T20:27:32.417Z,93692.20
2023-04-15T20:29:58.634Z,93694.20
2023-04-15T20:32:26.181Z,93700.00
2023-04-15T20:34:52.274Z,93702.20
2023-04-15T20:37:18.439Z,93704.60
2023-04-15T20:39:44.514Z,93705.20
2023-04-15T20:42:10.656Z,93708.80
2023-04-15T20:44:37.917Z,93710.40
2023-04-15T20:47:04.190Z,93707.80
2023-04-15T20:49:30.783Z,93711.40
2023-04-15T20:51:57.111Z,93715.20
2023-04-15T20:54:23.170Z,93720.80
2023-04-15T20:56:49.253Z,93724.00
2023-04-15T20:59:15.770Z,93724.60
2023-04-15T21:01:42.028Z,93725.20
2023-04-15T21:04:08.251Z,93729.60
2023-04-15T21:06:34.772Z,93728.80
2023-04-15T21:09:00.832Z,93726.80
2023-04-15T21:11:46.470Z,93731.20
2023-04-15T21:14:13.119Z,93729.80
2023-04-15T21:16:39.420Z,93734.00
2023-04-15T21:19:05.737Z,93738.20
2023-04-15T21:21:32.178Z,93736.00
2023-04-15T21:23:58.244Z,93737.60
2023-04-15T21:26:24.322Z,93742.40
2023-04-15T21:28:50.456Z,93743.00
2023-04-15T21:31:16.572Z,93742.20
2023-04-15T21:33:42.734Z,93741.60
2023-04-15T21:36:08.873Z,93745.20
2023-04-15T21:38:34.949Z,93744.20
2023-04-15T21:41:01.127Z,93750.60
2023-04-15T21:43:27.432Z,93751.60
2023-04-15T21:46:22.816Z,93758.80
2023-04-15T21:48:39.889Z,93762.40
2023-04-15T21:51:06.125Z,93763.40
2023-04-15T21:53:32.645Z,93764.60
2023-04-15T21:55:58.765Z,93770.00
2023-04-15T21:58:24.875Z,93777.00
2023-04-15T22:00:51.055Z,93781.60
2023-04-15T22:03:17.611Z,93788.20
2023-04-15T22:05:43.818Z,93786.80
2023-04-15T22:11:25.921Z,93796.40
2023-04-15T22:13:52.259Z,93798.60
2023-04-15T22:16:18.443Z,93801.40
2023-04-15T22:18:44.764Z,93806.40
2023-04-15T22:21:11.030Z,93806.60
2023-04-15T22:23:37.139Z,93805.40
2023-04-15T22:26:04.190Z,93809.40
2023-04-15T22:28:30.370Z,93816.40
2023-04-15T22:30:57.398Z,93819.80
2023-04-15T22:33:23.501Z,93826.20
2023-04-15T22:35:49.597Z,93827.80
2023-04-15T22:38:15.743Z,93834.80
2023-04-15T22:40:41.779Z,93832.20
2023-04-15T22:43:07.924Z,93836.60
2023-04-15T22:45:33.982Z,93838.20
2023-04-15T22:48:00.080Z,93840.80
2023-04-15T22:50:26.383Z,93849.60
2023-04-15T22:52:52.618Z,93849.00
2023-04-15T22:55:18.861Z,93857.00
2023-04-15T22:57:45.033Z,93857.60
2023-04-15T23:00:11.100Z,93854.80
2023-04-15T23:02:37.349Z,93855.60
2023-04-15T23:05:11.609Z,93858.80
2023-04-15T23:07:39.314Z,93860.80
2023-04-15T23:10:05.450Z,93866.60
2023-04-15T23:12:31.541Z,93869.40
2023-04-15T23:14:57.710Z,93865.80
2023-04-15T23:17:23.812Z,93869.00
2023-04-15T23:19:50.146Z,93865.60
2023-04-15T23:22:16.222Z,93863.20
2023-04-15T23:24:42.467Z,93863.40
2023-04-15T23:27:08.789Z,93866.40
2023-04-15T23:29:35.373Z,93872.20
2023-04-15T23:32:01.577Z,93872.00
2023-04-15T23:34:27.808Z,93879.20
2023-04-15T23:36:53.919Z,93879.00
2023-04-15T23:39:20.075Z,93881.80
2023-04-15T23:41:46.101Z,93882.40
2023-04-15T23:44:12.235Z,93881.40
2023-04-15T23:46:38.402Z,93884.40
2023-04-15T23:49:04.595Z,93886.00
2023-04-15T23:51:30.781Z,93888.00
2023-04-15T23:53:56.947Z,93882.00
2023-04-15T23:56:23.013Z,93887.20
2023-04-15T23:58:49.584Z,93889.20
